createdAt,value
2023-02-06T00:01:52.669Z,2.78
2023-02-06T00:04:20.706Z,2.70
2023-02-06T00:06:48.948Z,2.97
2023-02-06T00:09:17.072Z,2.92
2023-02-06T00:11:45.203Z,2.67
2023-02-06T00:14:13.257Z,2.85
2023-02-06T00:16:42.576Z,2.30
2023-02-06T00:19:10.667Z,2.00
2023-02-06T00:21:38.674Z,2.15
2023-02-06T00:24:07.221Z,1.83
2023-02-06T00:26:35.641Z,2.42
2023-02-06T00:29:03.959Z,3.20
2023-02-06T00:31:32.055Z,1.88
2023-02-06T00:34:01.769Z,3.08
2023-02-06T00:36:29.825Z,2.63
2023-02-06T00:38:57.878Z,2.67
2023-02-06T00:41:25.924Z,2.97
2023-02-06T00:43:53.941Z,3.22
2023-02-06T00:46:22.120Z,3.58
2023-02-06T00:48:50.793Z,2.97
2023-02-06T00:51:20.195Z,3.22
2023-02-06T00:53:50.937Z,3.45
2023-02-06T00:56:20.191Z,3.97
2023-02-06T00:58:48.503Z,2.90
2023-02-06T01:01:16.540Z,3.85
2023-02-06T01:03:44.880Z,3.67
2023-02-06T01:06:12.967Z,3.25
2023-02-06T01:08:42.356Z,3.45
2023-02-06T01:11:11.806Z,3.60
2023-02-06T01:13:40.174Z,3.60
2023-02-06T01:16:10.059Z,3.97
2023-02-06T01:18:38.806Z,3.53
2023-02-06T01:21:09.746Z,3.15
2023-02-06T01:23:38.006Z,3.65
2023-02-06T01:26:08.215Z,4.25
2023-02-06T01:28:37.442Z,3.50
2023-02-06T01:31:11.963Z,4.38
2023-02-06T01:33:40.242Z,4.50
2023-02-06T01:36:09.051Z,3.72
2023-02-06T01:38:37.258Z,4.68
2023-02-06T01:41:07.454Z,3.85
2023-02-06T01:43:39.245Z,4.05
2023-02-06T01:46:08.964Z,4.00
2023-02-06T01:48:40.411Z,3.50
2023-02-06T01:51:11.993Z,4.25
2023-02-06T01:53:41.979Z,3.63
2023-02-06T01:56:12.977Z,3.78
2023-02-06T01:58:44.930Z,3.95
2023-02-06T02:01:13.351Z,5.13
2023-02-06T02:03:43.652Z,4.60
2023-02-06T02:06:14.350Z,5.13
2023-02-06T02:08:45.011Z,4.13
2023-02-06T02:11:19.134Z,4.88
2023-02-06T02:13:47.556Z,4.20
2023-02-06T02:16:24.134Z,3.92
2023-02-06T02:19:09.273Z,4.20
2023-02-06T02:22:14.623Z,3.83
2023-02-06T02:25:08.290Z,4.28
2023-02-06T02:28:08.300Z,5.25
2023-02-06T02:30:59.952Z,4.65
2023-02-06T02:33:50.605Z,4.40
2023-02-06T02:36:25.170Z,3.83
2023-02-06T02:39:02.919Z,4.57
2023-02-06T02:41:39.883Z,4.47
2023-02-06T02:44:11.063Z,4.53
2023-02-06T02:46:43.681Z,4.32
2023-02-06T02:49:14.724Z,3.67
2023-02-06T02:51:45.459Z,4.22
2023-02-06T02:54:13.696Z,4.28
2023-02-06T02:56:42.169Z,4.35
2023-02-06T02:59:16.195Z,4.72
2023-02-06T03:01:49.619Z,5.43
2023-02-06T03:04:22.858Z,4.97
2023-02-06T03:07:04.439Z,4.28
2023-02-06T03:09:51.699Z,4.53
2023-02-06T03:12:25.683Z,3.92
2023-02-06T03:14:59.064Z,6.75
2023-02-06T03:17:34.588Z,6.13
2023-02-06T03:20:06.221Z,8.43
2023-02-06T03:22:37.899Z,5.93
2023-02-06T03:25:11.295Z,6.28
2023-02-06T03:27:41.825Z,6.22
2023-02-06T03:30:13.567Z,6.75
2023-02-06T03:32:44.246Z,6.80
2023-02-06T03:35:17.231Z,5.30
2023-02-06T03:37:47.640Z,4.30
2023-02-06T03:40:16.511Z,4.47
2023-02-06T03:42:49.412Z,4.35
2023-02-06T03:45:22.977Z,3.87
2023-02-06T03:47:53.964Z,3.60
2023-02-06T03:50:24.353Z,3.83
2023-02-06T03:52:56.994Z,3.55
2023-02-06T03:55:25.683Z,3.43
2023-02-06T03:57:57.290Z,4.65
2023-02-06T04:00:26.214Z,4.77
2023-02-06T04:02:56.502Z,3.23
2023-02-06T04:05:25.030Z,3.07
2023-02-06T04:07:56.919Z,2.63
2023-02-06T04:10:26.478Z,2.57
2023-02-06T04:12:54.832Z,2.60
2023-02-06T04:15:23.341Z,2.80
2023-02-06T04:18:00.429Z,2.50
2023-02-06T04:20:30.284Z,3.20
2023-02-06T04:23:00.790Z,2.63
2023-02-06T04:25:28.817Z,2.90
2023-02-06T04:27:56.882Z,3.20
2023-02-06T04:30:24.977Z,2.90
2023-02-06T04:32:53.151Z,3.57
2023-02-06T04:35:21.230Z,3.35
2023-02-06T04:37:49.433Z,2.97
2023-02-06T04:40:19.664Z,2.90
2023-02-06T04:42:48.308Z,3.20
2023-02-06T04:45:16.666Z,3.87
2023-02-06T04:47:49.380Z,3.57
2023-02-06T04:50:17.854Z,3.50
2023-02-06T04:52:46.254Z,3.10
2023-02-06T04:55:14.257Z,5.10
2023-02-06T04:57:43.998Z,7.83
2023-02-06T05:00:15.716Z,8.00
2023-02-06T05:02:43.996Z,9.10
2023-02-06T05:05:12.354Z,8.50
2023-02-06T05:07:40.809Z,6.80
2023-02-06T05:10:09.972Z,5.97
2023-02-06T05:12:38.466Z,6.20
2023-02-06T05:15:09.090Z,5.67
2023-02-06T05:17:37.802Z,6.40
2023-02-06T05:20:07.222Z,7.60
2023-02-06T05:22:35.285Z,5.33
2023-02-06T05:25:03.388Z,6.07
2023-02-06T05:27:31.531Z,6.20
2023-02-06T05:29:59.772Z,6.77
2023-02-06T05:32:29.899Z,6.00
2023-02-06T05:34:58.218Z,5.80
2023-02-06T05:37:26.364Z,6.63
2023-02-06T05:39:54.493Z,6.63
2023-02-06T05:42:22.522Z,6.80
2023-02-06T05:44:50.622Z,6.17
2023-02-06T05:47:18.616Z,6.10
2023-02-06T05:49:49.724Z,5.37
2023-02-06T05:52:17.795Z,5.80
2023-02-06T05:54:46.351Z,6.03
2023-02-06T05:57:14.695Z,9.17
2023-02-06T05:59:43.274Z,7.03
2023-02-06T06:02:11.840Z,7.60
2023-02-06T06:04:40.025Z,7.10
2023-02-06T06:07:09.451Z,7.93
2023-02-06T06:09:37.594Z,8.00
2023-02-06T06:12:05.938Z,7.27
2023-02-06T06:14:33.968Z,7.83
2023-02-06T06:17:02.768Z,7.57
2023-02-06T06:19:30.930Z,8.37
2023-02-06T06:21:59.076Z,8.17
2023-02-06T06:24:28.609Z,8.30
2023-02-06T06:26:56.774Z,8.30
2023-02-06T06:29:25.131Z,7.93
2023-02-06T06:31:53.315Z,7.17
2023-02-06T06:34:21.438Z,7.10
2023-02-06T06:36:49.519Z,7.07
2023-02-06T06:39:17.571Z,7.00
2023-02-06T06:41:46.985Z,8.40
2023-02-06T06:44:15.188Z,7.90
2023-02-06T06:46:43.401Z,7.73
2023-02-06T06:49:11.637Z,7.50
2023-02-06T06:51:39.942Z,7.43
2023-02-06T06:54:08.291Z,6.17
2023-02-06T06:56:36.514Z,7.70
2023-02-06T06:59:05.971Z,6.77
2023-02-06T07:01:34.541Z,7.57
2023-02-06T07:04:03.282Z,8.00
2023-02-06T07:06:31.326Z,9.90
2023-02-06T07:08:59.616Z,9.40
2023-02-06T07:11:27.741Z,10.87
2023-02-06T07:13:55.808Z,8.03
2023-02-06T07:16:25.232Z,9.57
2023-02-06T07:18:53.264Z,8.53
2023-02-06T07:21:21.339Z,8.57
2023-02-06T07:23:49.468Z,8.97
2023-02-06T07:26:17.496Z,9.23
2023-02-06T07:28:46.070Z,8.93
2023-02-06T07:31:14.118Z,11.07
2023-02-06T07:33:43.504Z,10.27
2023-02-06T07:36:12.631Z,9.33
2023-02-06T07:38:40.680Z,9.03
2023-02-06T07:41:10.766Z,9.57
2023-02-06T07:43:40.853Z,9.93
2023-02-06T07:46:08.902Z,11.10
2023-02-06T07:48:37.474Z,11.20
2023-02-06T07:51:08.202Z,10.70
2023-02-06T07:53:37.497Z,10.10
2023-02-06T07:56:12.141Z,11.30
2023-02-06T07:58:40.401Z,11.03
2023-02-06T08:01:08.980Z,11.07
2023-02-06T08:03:37.271Z,10.70
2023-02-06T08:06:11.027Z,10.63
2023-02-06T08:08:39.245Z,9.97
2023-02-06T08:11:08.501Z,10.27
2023-02-06T08:13:36.576Z,9.10
2023-02-06T08:16:06.558Z,9.70
2023-02-06T08:18:34.788Z,6.47
2023-02-06T08:21:03.942Z,5.23
2023-02-06T08:23:33.619Z,6.57
2023-02-06T08:26:07.617Z,6.40
2023-02-06T08:28:36.592Z,5.90
2023-02-06T08:31:11.290Z,5.97
2023-02-06T08:33:39.438Z,4.90
2023-02-06T08:36:08.776Z,6.53
2023-02-06T08:38:38.467Z,5.57
2023-02-06T08:41:14.895Z,5.10
2023-02-06T08:43:42.881Z,6.10
2023-02-06T08:46:10.870Z,4.87
2023-02-06T08:48:38.871Z,4.67
2023-02-06T08:51:08.079Z,5.53
2023-02-06T08:53:38.394Z,5.77
2023-02-06T08:56:08.964Z,4.50
2023-02-06T08:58:38.193Z,4.68
2023-02-06T09:01:08.042Z,5.87
2023-02-06T09:03:36.113Z,7.28
2023-02-06T09:06:10.328Z,6.55
2023-02-06T09:08:41.292Z,5.43
2023-02-06T09:11:10.932Z,5.40
2023-02-06T09:13:39.697Z,5.27
2023-02-06T09:16:08.437Z,4.60
2023-02-06T09:18:37.054Z,4.37
2023-02-06T09:21:07.864Z,5.25
2023-02-06T09:23:35.916Z,4.45
2023-02-06T09:26:06.212Z,4.63
2023-02-06T09:28:34.855Z,4.77
2023-02-06T09:31:03.775Z,5.07
2023-02-06T09:33:31.908Z,4.68
2023-02-06T09:36:04.792Z,4.33
2023-02-06T09:38:33.447Z,5.40
2023-02-06T09:41:03.301Z,3.72
2023-02-06T09:43:33.790Z,4.55
2023-02-06T09:46:05.863Z,4.15
2023-02-06T09:48:37.188Z,3.22
2023-02-06T09:51:12.747Z,3.45
2023-02-06T09:53:49.941Z,3.67
2023-02-06T09:56:27.400Z,3.38
2023-02-06T09:59:04.343Z,3.92
2023-02-06T10:01:40.477Z,3.63
2023-02-06T10:04:38.668Z,3.42
2023-02-06T10:07:23.873Z,3.30
2023-02-06T10:09:57.060Z,3.65
2023-02-06T10:12:29.526Z,4.07
2023-02-06T10:15:02.333Z,3.33
2023-02-06T10:17:34.989Z,3.50
2023-02-06T10:20:06.999Z,4.25
2023-02-06T10:22:55.420Z,4.43
2023-02-06T10:25:28.599Z,3.00
2023-02-06T10:28:02.611Z,3.35
2023-02-06T10:30:40.799Z,2.42
2023-02-06T10:33:25.232Z,3.38
2023-02-06T10:35:58.869Z,3.30
2023-02-06T10:39:01.137Z,3.03
2023-02-06T10:41:39.557Z,3.50
2023-02-06T10:44:19.297Z,3.63
2023-02-06T10:46:50.837Z,2.53
2023-02-06T10:49:27.697Z,2.95
2023-02-06T10:51:58.683Z,2.90
2023-02-06T10:54:31.505Z,3.00
2023-02-06T10:57:00.693Z,2.28
2023-02-06T10:59:32.602Z,3.13
2023-02-06T11:02:19.298Z,2.40
2023-02-06T11:04:53.162Z,2.33
2023-02-06T11:07:27.029Z,2.03
2023-02-06T11:09:55.134Z,2.10
2023-02-06T11:12:33.090Z,2.28
2023-02-06T11:15:07.593Z,3.08
2023-02-06T11:17:37.304Z,1.80
2023-02-06T11:20:17.589Z,2.85
2023-02-06T11:22:52.698Z,1.85
2023-02-06T11:25:25.971Z,2.00
2023-02-06T11:27:54.688Z,3.00
2023-02-06T11:30:30.448Z,2.50
2023-02-06T11:33:04.943Z,2.72
2023-02-06T11:35:38.297Z,2.53
2023-02-06T11:38:14.479Z,2.42
2023-02-06T11:40:42.936Z,2.28
2023-02-06T11:43:20.662Z,3.00
2023-02-06T11:45:52.115Z,2.53
2023-02-06T11:48:38.240Z,3.05
2023-02-06T11:51:07.727Z,2.25
2023-02-06T11:53:36.519Z,2.25
2023-02-06T11:56:15.834Z,2.22
2023-02-06T11:58:44.600Z,2.22
2023-02-06T12:01:20.714Z,2.50
2023-02-06T12:03:59.759Z,3.20
2023-02-06T12:06:33.511Z,2.95
2023-02-06T12:09:04.083Z,3.47
2023-02-06T12:11:35.527Z,2.88
2023-02-06T12:14:07.214Z,2.20
2023-02-06T12:16:38.617Z,2.60
2023-02-06T12:19:16.636Z,2.53
2023-02-06T12:21:48.953Z,2.85
2023-02-06T12:24:28.572Z,2.75
2023-02-06T12:26:58.860Z,2.45
2023-02-06T12:29:31.226Z,2.50
2023-02-06T12:32:05.630Z,3.03
2023-02-06T12:34:50.195Z,2.67
2023-02-06T12:37:22.567Z,2.40
2023-02-06T12:39:52.872Z,2.60
2023-02-06T12:42:39.260Z,2.70
2023-02-06T12:45:17.345Z,3.10
2023-02-06T12:47:50.602Z,3.05
2023-02-06T12:50:24.241Z,2.83
2023-02-06T12:52:56.969Z,3.58
2023-02-06T12:55:31.249Z,3.50
2023-02-06T12:57:59.762Z,3.33
2023-02-06T13:00:56.021Z,2.60
2023-02-06T13:03:28.382Z,2.67
2023-02-06T13:06:05.556Z,2.80
2023-02-06T13:08:42.300Z,3.08
2023-02-06T13:11:17.343Z,3.03
2023-02-06T13:13:45.790Z,2.78
2023-02-06T13:16:14.271Z,2.75
2023-02-06T13:19:03.141Z,3.25
2023-02-06T13:21:33.931Z,3.25
2023-02-06T13:24:22.883Z,2.90
2023-02-06T13:27:18.247Z,3.45
2023-02-06T13:29:47.952Z,2.95
2023-02-06T13:32:43.033Z,3.05
2023-02-06T13:35:29.452Z,3.00
2023-02-06T13:38:36.934Z,3.35
2023-02-06T13:41:29.808Z,2.33
2023-02-06T13:44:01.669Z,3.05
2023-02-06T13:46:47.521Z,2.50
2023-02-06T13:49:45.658Z,2.10
2023-02-06T13:52:20.787Z,2.53
2023-02-06T13:55:17.665Z,1.85
2023-02-06T13:58:05.822Z,1.98
2023-02-06T14:00:39.225Z,1.80
2023-02-06T14:03:13.672Z,2.05
2023-02-06T14:05:54.276Z,2.10
2023-02-06T14:08:31.711Z,1.83
2023-02-06T14:11:30.722Z,1.95
2023-02-06T14:14:24.863Z,2.08
2023-02-06T14:17:03.024Z,1.63
2023-02-06T14:19:38.889Z,1.95
2023-02-06T14:22:17.355Z,2.00
2023-02-06T14:25:17.305Z,1.98
2023-02-06T14:27:59.427Z,1.50
2023-02-06T14:30:34.421Z,2.05
2023-02-06T14:33:26.728Z,2.60
2023-02-06T14:36:07.226Z,1.85
2023-02-06T14:38:56.600Z,2.70
2023-02-06T14:41:28.520Z,1.48
2023-02-06T14:43:59.699Z,1.70
2023-02-06T14:46:28.352Z,1.90
2023-02-06T14:48:58.460Z,2.88
2023-02-06T14:51:30.725Z,3.67
2023-02-06T14:54:01.440Z,2.90
2023-02-06T14:56:32.110Z,3.35
2023-02-06T14:59:17.920Z,2.45
2023-02-06T15:01:48.235Z,2.70
2023-02-06T15:04:19.178Z,1.90
2023-02-06T15:06:53.288Z,1.83
2023-02-06T15:09:28.205Z,2.38
2023-02-06T15:12:00.656Z,3.00
2023-02-06T15:14:32.937Z,1.90
2023-02-06T15:17:03.566Z,1.92
2023-02-06T15:19:35.458Z,2.22
2023-02-06T15:22:06.454Z,1.92
2023-02-06T15:24:54.634Z,2.03
2023-02-06T15:27:29.016Z,2.17
2023-02-06T15:29:59.268Z,2.47
2023-02-06T15:32:30.329Z,1.80
2023-02-06T15:34:59.908Z,2.13
2023-02-06T15:37:30.834Z,4.05
2023-02-06T15:40:06.567Z,2.30
2023-02-06T15:42:35.010Z,2.33
2023-02-06T15:45:05.728Z,3.72
2023-02-06T15:47:34.338Z,2.17
2023-02-06T15:50:02.570Z,2.42
2023-02-06T15:52:36.629Z,2.28
2023-02-06T15:55:05.662Z,2.13
2023-02-06T15:57:37.125Z,2.15
2023-02-06T16:00:15.244Z,2.30
2023-02-06T16:02:47.806Z,2.03
2023-02-06T16:05:26.586Z,2.40
2023-02-06T16:07:55.365Z,2.38
2023-02-06T16:10:26.510Z,2.45
2023-02-06T16:12:57.205Z,2.92
2023-02-06T16:15:31.172Z,3.10
2023-02-06T16:18:01.434Z,2.90
2023-02-06T16:20:37.238Z,3.83
2023-02-06T16:23:30.578Z,2.55
2023-02-06T16:26:07.460Z,2.42
2023-02-06T16:28:42.413Z,3.47
2023-02-06T16:31:15.665Z,3.17
2023-02-06T16:33:45.303Z,3.67
2023-02-06T16:36:14.849Z,2.78
2023-02-06T16:38:48.359Z,3.30
2023-02-06T16:41:27.887Z,3.30
2023-02-06T16:43:57.137Z,3.63
2023-02-06T16:46:27.566Z,4.13
2023-02-06T16:48:56.105Z,3.90
2023-02-06T16:51:26.432Z,3.10
2023-02-06T16:53:54.817Z,2.92
2023-02-06T16:56:24.393Z,3.08
2023-02-06T16:58:52.938Z,3.05
2023-02-06T17:01:24.851Z,3.70
2023-02-06T17:03:54.970Z,3.03
2023-02-06T17:06:25.622Z,4.28
2023-02-06T17:08:58.209Z,4.30
2023-02-06T17:11:28.036Z,4.45
2023-02-06T17:13:56.768Z,5.00
2023-02-06T17:16:27.303Z,5.50
2023-02-06T17:18:56.952Z,5.28
2023-02-06T17:21:28.199Z,5.55
2023-02-06T17:23:56.297Z,5.30
2023-02-06T17:26:25.001Z,5.03
2023-02-06T17:28:53.188Z,5.30
2023-02-06T17:31:21.962Z,5.60
2023-02-06T17:33:50.404Z,5.68
2023-02-06T17:36:22.360Z,6.55
2023-02-06T17:38:50.595Z,5.20
2023-02-06T17:41:18.759Z,4.85
2023-02-06T17:43:46.859Z,5.13
2023-02-06T17:46:15.087Z,4.93
2023-02-06T17:48:44.460Z,4.72
2023-02-06T17:51:12.944Z,4.53
2023-02-06T17:53:43.032Z,4.95
2023-02-06T17:56:13.690Z,6.13
2023-02-06T17:58:42.446Z,5.75
2023-02-06T18:01:13.019Z,5.32
2023-02-06T18:03:41.566Z,4.97
2023-02-06T18:06:10.778Z,4.95
2023-02-06T18:08:39.956Z,5.57
2023-02-06T18:11:11.414Z,6.35
2023-02-06T18:13:39.898Z,4.57
2023-02-06T18:16:08.605Z,4.63
2023-02-06T18:18:36.853Z,4.57
2023-02-06T18:21:05.244Z,4.93
2023-02-06T18:23:33.373Z,7.28
2023-02-06T18:26:03.064Z,7.40
2023-02-06T18:28:33.476Z,7.78
2023-02-06T18:31:02.595Z,7.63
2023-02-06T18:33:31.505Z,10.68
2023-02-06T18:35:59.556Z,12.52
2023-02-06T18:38:27.822Z,11.13
2023-02-06T18:40:55.842Z,12.83
2023-02-06T18:43:23.193Z,9.80
2023-02-06T18:45:52.679Z,11.57
2023-02-06T18:48:20.736Z,10.03
2023-02-06T18:50:48.856Z,10.90
2023-02-06T18:53:17.038Z,12.00
2023-02-06T18:56:07.680Z,13.13
2023-02-06T18:58:35.715Z,11.90
2023-02-06T19:01:12.524Z,11.67
2023-02-06T19:03:41.355Z,9.83
2023-02-06T19:06:14.397Z,12.60
2023-02-06T19:08:45.688Z,14.00
2023-02-06T19:11:14.814Z,11.80
2023-02-06T19:13:42.894Z,13.40
2023-02-06T19:16:14.256Z,12.57
2023-02-06T19:18:44.588Z,14.17
2023-02-06T19:21:15.680Z,13.27
2023-02-06T19:23:44.966Z,12.67
2023-02-06T19:26:14.775Z,13.37
2023-02-06T19:28:43.815Z,12.90
2023-02-06T19:31:15.219Z,13.07
2023-02-06T19:33:43.297Z,11.43
2023-02-06T19:36:14.096Z,12.77
2023-02-06T19:38:43.232Z,13.37
2023-02-06T19:41:13.315Z,13.07
2023-02-06T19:43:42.462Z,12.40
2023-02-06T19:46:15.331Z,12.93
2023-02-06T19:48:45.420Z,13.10
2023-02-06T19:51:16.042Z,13.87
2023-02-06T19:53:46.037Z,13.77
2023-02-06T19:56:14.902Z,12.67
2023-02-06T19:58:42.972Z,11.30
2023-02-06T20:01:13.519Z,10.80
2023-02-06T20:03:44.144Z,9.13
2023-02-06T20:06:14.746Z,9.80
2023-02-06T20:08:44.217Z,10.90
2023-02-06T20:11:14.797Z,10.40
2023-02-06T20:13:43.379Z,10.00
2023-02-06T20:16:16.741Z,10.17
2023-02-06T20:18:46.394Z,10.33
2023-02-06T20:21:23.043Z,10.67
2023-02-06T20:23:51.229Z,10.80
2023-02-06T20:26:21.183Z,10.40
2023-02-06T20:28:49.442Z,11.20
2023-02-06T20:31:17.956Z,9.57
2023-02-06T20:33:48.136Z,9.10
2023-02-06T20:36:19.912Z,8.40
2023-02-06T20:38:49.753Z,11.80
2023-02-06T20:41:18.978Z,13.23
2023-02-06T20:43:48.138Z,13.23
2023-02-06T20:46:17.477Z,13.73
2023-02-06T20:48:47.991Z,16.47
2023-02-06T20:51:16.038Z,17.50
2023-02-06T20:53:44.333Z,17.17
2023-02-06T20:56:14.543Z,16.13
2023-02-06T20:58:42.756Z,10.70
2023-02-06T21:01:15.859Z,9.67
2023-02-06T21:03:44.334Z,9.03
2023-02-06T21:06:14.404Z,9.13
2023-02-06T21:08:42.885Z,9.10
2023-02-06T21:11:10.934Z,9.07
2023-02-06T21:13:40.980Z,8.90
2023-02-06T21:16:11.945Z,9.03
2023-02-06T21:18:42.660Z,7.87
2023-02-06T21:21:13.962Z,8.10
2023-02-06T21:23:43.751Z,6.23
2023-02-06T21:26:13.664Z,7.67
2023-02-06T21:28:42.283Z,7.93
2023-02-06T21:31:14.276Z,9.37
2023-02-06T21:33:42.575Z,7.67
2023-02-06T21:36:10.762Z,8.00
2023-02-06T21:38:41.119Z,5.47
2023-02-06T21:41:11.137Z,6.80
2023-02-06T21:43:39.203Z,7.60
2023-02-06T21:46:07.842Z,10.13
2023-02-06T21:48:36.419Z,10.13
2023-02-06T21:51:09.314Z,8.37
2023-02-06T21:53:37.337Z,7.20
2023-02-06T21:56:08.223Z,7.77
2023-02-06T21:58:37.231Z,6.97
2023-02-06T22:01:08.701Z,5.40
2023-02-06T22:03:37.046Z,6.27
2023-02-06T22:06:08.856Z,6.40
2023-02-06T22:08:38.042Z,5.33
2023-02-06T22:11:14.844Z,5.03
2023-02-06T22:13:43.576Z,6.37
2023-02-06T22:16:13.377Z,4.93
2023-02-06T22:18:41.454Z,5.90
2023-02-06T22:21:13.162Z,5.67
2023-02-06T22:23:41.775Z,6.23
2023-02-06T22:26:11.644Z,7.47
2023-02-06T22:28:41.301Z,7.20
2023-02-06T22:31:11.662Z,6.93
2023-02-06T22:33:40.493Z,7.10
2023-02-06T22:36:10.605Z,6.17
2023-02-06T22:38:39.476Z,6.03
2023-02-06T22:41:09.361Z,5.87
2023-02-06T22:43:40.133Z,4.90
2023-02-06T22:46:08.922Z,5.07
2023-02-06T22:48:37.391Z,5.10
2023-02-06T22:51:06.665Z,4.50
2023-02-06T22:53:34.936Z,5.20
2023-02-06T22:56:22.730Z,4.77
2023-02-06T22:58:52.502Z,4.40
2023-02-06T23:01:23.188Z,4.20
2023-02-06T23:03:53.480Z,4.07
2023-02-06T23:06:22.233Z,3.60
2023-02-06T23:08:50.574Z,3.20
2023-02-06T23:11:18.586Z,3.73
2023-02-06T23:13:46.732Z,4.00
2023-02-06T23:16:16.161Z,3.87
2023-02-06T23:18:44.191Z,3.50
2023-02-06T23:21:13.955Z,3.50
2023-02-06T23:23:42.981Z,3.23
2023-02-06T23:26:13.001Z,3.83
2023-02-06T23:28:42.092Z,2.77
2023-02-06T23:31:10.910Z,2.90
2023-02-06T23:33:40.583Z,3.37
2023-02-06T23:36:12.022Z,3.53
2023-02-06T23:38:40.846Z,3.13
2023-02-06T23:41:11.692Z,4.23
2023-02-06T23:43:40.328Z,3.63
2023-02-06T23:46:12.194Z,2.90
2023-02-06T23:48:41.748Z,2.83
2023-02-06T23:51:09.765Z,3.50
2023-02-06T23:53:37.924Z,3.23
2023-02-06T23:56:11.642Z,3.73
2023-02-06T23:58:39.676Z,3.30
